Boonville, North Carolina
Current Conditions -  °F | °C
As of 11:35 AM on Friday 19 Dec 2014 (Local Time) from KMWK Reporting Station
Clear Clear  
Wind Chill: 44°   Ceiling: Unl
Heat Index: 48°   Visibility: 10mi
Dew Point: 19°   Wind: 8mph
Humidity: 32%   Direction: 300°WNW
Pressure: 30.16"   Gusts: NA
Location:  36.23°N, 80.71°W
Report Text: KMWK 191635Z AUTO 30007KT 10SM CLR 09/M07 A3016 RMK AO2 T00881070
Loading
Personal Weather Stations






























Interactive Weather Map New forecast layout! Learn more

10-Day Weather Forecast

Advertisements
Track Severe Weather on mobile